<?xml version="1.0" encoding="UTF-8" standalone="no" ?>
<gpx xmlns="http://www.topografix.com/GPX/1/1" xmlns:xsi="http://www.w3.org/2001/XMLSchema-instance" xsi:schemaLocation="http://www.topografix.com/GPX/1/1 http://www.topografix.com/GPX/1/1/gpx.xsd" version="1.1" creator="VisuGPX - https://www.visugpx.com">
  <metadata>
    <name>2023-10-02-46-goujounac</name>
    <desc><![CDATA[Randonnée de 10km sans difficulté majorité du circuit sur des chemins en sous bois , à voir quelques gariottes, lavoir et jolies maisons quercynoises ]]></desc>
  </metadata>
  <trk>
    <name><![CDATA[goujounac 02-10-2023-17704181-17706111]]></name>
    <trkseg>
      <trkpt lat="44.57693" lon="1.19582">
        <ele>227</ele>
        <time>2023-09-29T13:29:40Z</time>
      </trkpt>
      <trkpt lat="44.57773" lon="1.19744">
        <ele>218</ele>
        <time>2023-09-29T13:32:47Z</time>
      </trkpt>
      <trkpt lat="44.57785" lon="1.19734">
        <ele>218</ele>
        <time>2023-09-29T13:33:06Z</time>
      </trkpt>
      <trkpt lat="44.57832" lon="1.19648">
        <ele>222</ele>
        <time>2023-09-29T13:34:49Z</time>
      </trkpt>
      <trkpt lat="44.57884" lon="1.1956">
        <ele>231</ele>
        <time>2023-09-29T13:36:38Z</time>
      </trkpt>
      <trkpt lat="44.57925" lon="1.19506">
        <ele>233</ele>
        <time>2023-09-29T13:37:53Z</time>
      </trkpt>
      <trkpt lat="44.57987" lon="1.19413">
        <ele>240</ele>
        <time>2023-09-29T13:39:54Z</time>
      </trkpt>
      <trkpt lat="44.58045" lon="1.19304">
        <ele>252</ele>
        <time>2023-09-29T13:42:03Z</time>
      </trkpt>
      <trkpt lat="44.58051" lon="1.19243">
        <ele>256</ele>
        <time>2023-09-29T13:43:02Z</time>
      </trkpt>
      <trkpt lat="44.58051" lon="1.19034">
        <ele>267</ele>
        <time>2023-09-29T13:46:20Z</time>
      </trkpt>
      <trkpt lat="44.58038" lon="1.18975">
        <ele>265</ele>
        <time>2023-09-29T13:47:19Z</time>
      </trkpt>
      <trkpt lat="44.5808" lon="1.1892">
        <ele>265</ele>
        <time>2023-09-29T13:48:36Z</time>
      </trkpt>
      <trkpt lat="44.58094" lon="1.18852">
        <ele>259</ele>
        <time>2023-09-29T13:49:43Z</time>
      </trkpt>
      <trkpt lat="44.58122" lon="1.18795">
        <ele>255</ele>
        <time>2023-09-29T13:50:49Z</time>
      </trkpt>
      <trkpt lat="44.5816" lon="1.18709">
        <ele>249</ele>
        <time>2023-09-29T13:52:25Z</time>
      </trkpt>
      <trkpt lat="44.58175" lon="1.18638">
        <ele>243</ele>
        <time>2023-09-29T13:53:35Z</time>
      </trkpt>
      <trkpt lat="44.58185" lon="1.18601">
        <ele>241</ele>
        <time>2023-09-29T13:54:13Z</time>
      </trkpt>
      <trkpt lat="44.58206" lon="1.18579">
        <ele>241</ele>
        <time>2023-09-29T13:54:48Z</time>
      </trkpt>
      <trkpt lat="44.58192" lon="1.18555">
        <ele>239</ele>
        <time>2023-09-29T13:55:17Z</time>
      </trkpt>
      <trkpt lat="44.5821" lon="1.18501">
        <ele>236</ele>
        <time>2023-09-29T13:56:14Z</time>
      </trkpt>
      <trkpt lat="44.58241" lon="1.1847">
        <ele>235</ele>
        <time>2023-09-29T13:57:05Z</time>
      </trkpt>
      <trkpt lat="44.5827" lon="1.18466">
        <ele>236</ele>
        <time>2023-09-29T13:57:44Z</time>
      </trkpt>
      <trkpt lat="44.58284" lon="1.18445">
        <ele>236</ele>
        <time>2023-09-29T13:58:11Z</time>
      </trkpt>
      <trkpt lat="44.58303" lon="1.18398">
        <ele>234</ele>
        <time>2023-09-29T13:59:02Z</time>
      </trkpt>
      <trkpt lat="44.58338" lon="1.1836">
        <ele>234</ele>
        <time>2023-09-29T14:00:01Z</time>
      </trkpt>
      <trkpt lat="44.58373" lon="1.18288">
        <ele>231</ele>
        <time>2023-09-29T14:01:24Z</time>
      </trkpt>
      <trkpt lat="44.58419" lon="1.18248">
        <ele>231</ele>
        <time>2023-09-29T14:02:37Z</time>
      </trkpt>
      <trkpt lat="44.58441" lon="1.18214">
        <ele>230</ele>
        <time>2023-09-29T14:03:20Z</time>
      </trkpt>
      <trkpt lat="44.58468" lon="1.18168">
        <ele>229</ele>
        <time>2023-09-29T14:04:17Z</time>
      </trkpt>
      <trkpt lat="44.58506" lon="1.18102">
        <ele>233</ele>
        <time>2023-09-29T14:05:38Z</time>
      </trkpt>
      <trkpt lat="44.58534" lon="1.18064">
        <ele>236</ele>
        <time>2023-09-29T14:06:29Z</time>
      </trkpt>
      <trkpt lat="44.58564" lon="1.1803">
        <ele>238</ele>
        <time>2023-09-29T14:07:21Z</time>
      </trkpt>
      <trkpt lat="44.58592" lon="1.17993">
        <ele>240</ele>
        <time>2023-09-29T14:08:12Z</time>
      </trkpt>
      <trkpt lat="44.58622" lon="1.17959">
        <ele>243</ele>
        <time>2023-09-29T14:09:04Z</time>
      </trkpt>
      <trkpt lat="44.58641" lon="1.1792">
        <ele>245</ele>
        <time>2023-09-29T14:09:49Z</time>
      </trkpt>
      <trkpt lat="44.58659" lon="1.17947">
        <ele>244</ele>
        <time>2023-09-29T14:10:24Z</time>
      </trkpt>
      <trkpt lat="44.58682" lon="1.18007">
        <ele>244</ele>
        <time>2023-09-29T14:11:29Z</time>
      </trkpt>
      <trkpt lat="44.58709" lon="1.1804">
        <ele>247</ele>
        <time>2023-09-29T14:12:16Z</time>
      </trkpt>
      <trkpt lat="44.58745" lon="1.1807">
        <ele>249</ele>
        <time>2023-09-29T14:13:12Z</time>
      </trkpt>
      <trkpt lat="44.58775" lon="1.18103">
        <ele>250</ele>
        <time>2023-09-29T14:14:03Z</time>
      </trkpt>
      <trkpt lat="44.58792" lon="1.18153">
        <ele>252</ele>
        <time>2023-09-29T14:14:56Z</time>
      </trkpt>
      <trkpt lat="44.58812" lon="1.18197">
        <ele>254</ele>
        <time>2023-09-29T14:15:45Z</time>
      </trkpt>
      <trkpt lat="44.58845" lon="1.18237">
        <ele>257</ele>
        <time>2023-09-29T14:16:43Z</time>
      </trkpt>
      <trkpt lat="44.58867" lon="1.18287">
        <ele>259</ele>
        <time>2023-09-29T14:17:39Z</time>
      </trkpt>
      <trkpt lat="44.58885" lon="1.18339">
        <ele>262</ele>
        <time>2023-09-29T14:18:34Z</time>
      </trkpt>
      <trkpt lat="44.58904" lon="1.1838">
        <ele>265</ele>
        <time>2023-09-29T14:19:21Z</time>
      </trkpt>
      <trkpt lat="44.58913" lon="1.18424">
        <ele>267</ele>
        <time>2023-09-29T14:20:04Z</time>
      </trkpt>
      <trkpt lat="44.58904" lon="1.18486">
        <ele>266</ele>
        <time>2023-09-29T14:21:04Z</time>
      </trkpt>
      <trkpt lat="44.58886" lon="1.18548">
        <ele>266</ele>
        <time>2023-09-29T14:22:08Z</time>
      </trkpt>
      <trkpt lat="44.58881" lon="1.18603">
        <ele>269</ele>
        <time>2023-09-29T14:23:01Z</time>
      </trkpt>
      <trkpt lat="44.58866" lon="1.18637">
        <ele>270</ele>
        <time>2023-09-29T14:23:39Z</time>
      </trkpt>
      <trkpt lat="44.5885" lon="1.18681">
        <ele>272</ele>
        <time>2023-09-29T14:24:26Z</time>
      </trkpt>
      <trkpt lat="44.58831" lon="1.18711">
        <ele>272</ele>
        <time>2023-09-29T14:25:04Z</time>
      </trkpt>
      <trkpt lat="44.58804" lon="1.18749">
        <ele>272</ele>
        <time>2023-09-29T14:25:55Z</time>
      </trkpt>
      <trkpt lat="44.58767" lon="1.18779">
        <ele>269</ele>
        <time>2023-09-29T14:26:52Z</time>
      </trkpt>
      <trkpt lat="44.58733" lon="1.18803">
        <ele>267</ele>
        <time>2023-09-29T14:27:43Z</time>
      </trkpt>
      <trkpt lat="44.58709" lon="1.18815">
        <ele>267</ele>
        <time>2023-09-29T14:28:17Z</time>
      </trkpt>
      <trkpt lat="44.58674" lon="1.18819">
        <ele>265</ele>
        <time>2023-09-29T14:29:03Z</time>
      </trkpt>
      <trkpt lat="44.58638" lon="1.18817">
        <ele>264</ele>
        <time>2023-09-29T14:29:52Z</time>
      </trkpt>
      <trkpt lat="44.58603" lon="1.18819">
        <ele>263</ele>
        <time>2023-09-29T14:30:38Z</time>
      </trkpt>
      <trkpt lat="44.58581" lon="1.18817">
        <ele>263</ele>
        <time>2023-09-29T14:31:08Z</time>
      </trkpt>
      <trkpt lat="44.5856" lon="1.18815">
        <ele>262</ele>
        <time>2023-09-29T14:31:36Z</time>
      </trkpt>
      <trkpt lat="44.58532" lon="1.18816">
        <ele>262</ele>
        <time>2023-09-29T14:32:13Z</time>
      </trkpt>
      <trkpt lat="44.58508" lon="1.18817">
        <ele>261</ele>
        <time>2023-09-29T14:32:45Z</time>
      </trkpt>
      <trkpt lat="44.58479" lon="1.18831">
        <ele>260</ele>
        <time>2023-09-29T14:33:26Z</time>
      </trkpt>
      <trkpt lat="44.5846" lon="1.18845">
        <ele>260</ele>
        <time>2023-09-29T14:33:55Z</time>
      </trkpt>
      <trkpt lat="44.58443" lon="1.18853">
        <ele>259</ele>
        <time>2023-09-29T14:34:19Z</time>
      </trkpt>
      <trkpt lat="44.5843" lon="1.18864">
        <ele>259</ele>
        <time>2023-09-29T14:34:39Z</time>
      </trkpt>
      <trkpt lat="44.58416" lon="1.18874">
        <ele>258</ele>
        <time>2023-09-29T14:35:00Z</time>
      </trkpt>
      <trkpt lat="44.58427" lon="1.18918">
        <ele>261</ele>
        <time>2023-09-29T14:35:44Z</time>
      </trkpt>
      <trkpt lat="44.58442" lon="1.18975">
        <ele>264</ele>
        <time>2023-09-29T14:36:42Z</time>
      </trkpt>
      <trkpt lat="44.58461" lon="1.19023">
        <ele>265</ele>
        <time>2023-09-29T14:37:34Z</time>
      </trkpt>
      <trkpt lat="44.58472" lon="1.19076">
        <ele>262</ele>
        <time>2023-09-29T14:38:27Z</time>
      </trkpt>
      <trkpt lat="44.58528" lon="1.19112">
        <ele>258</ele>
        <time>2023-09-29T14:39:49Z</time>
      </trkpt>
      <trkpt lat="44.58574" lon="1.19155">
        <ele>253</ele>
        <time>2023-09-29T14:41:03Z</time>
      </trkpt>
      <trkpt lat="44.58599" lon="1.19193">
        <ele>253</ele>
        <time>2023-09-29T14:41:52Z</time>
      </trkpt>
      <trkpt lat="44.58612" lon="1.19217">
        <ele>254</ele>
        <time>2023-09-29T14:42:20Z</time>
      </trkpt>
      <trkpt lat="44.58583" lon="1.19255">
        <ele>254</ele>
        <time>2023-09-29T14:43:13Z</time>
      </trkpt>
      <trkpt lat="44.5855" lon="1.19276">
        <ele>253</ele>
        <time>2023-09-29T14:44:02Z</time>
      </trkpt>
      <trkpt lat="44.58518" lon="1.1932">
        <ele>250</ele>
        <time>2023-09-29T14:45:01Z</time>
      </trkpt>
      <trkpt lat="44.58451" lon="1.19392">
        <ele>247</ele>
        <time>2023-09-29T14:46:54Z</time>
      </trkpt>
      <trkpt lat="44.58452" lon="1.19566">
        <ele>241</ele>
        <time>2023-09-29T14:49:39Z</time>
      </trkpt>
      <trkpt lat="44.58509" lon="1.19589">
        <ele>247</ele>
        <time>2023-09-29T14:50:59Z</time>
      </trkpt>
      <trkpt lat="44.58558" lon="1.19614">
        <ele>253</ele>
        <time>2023-09-29T14:52:08Z</time>
      </trkpt>
      <trkpt lat="44.58609" lon="1.19577">
        <ele>260</ele>
        <time>2023-09-29T14:53:25Z</time>
      </trkpt>
      <trkpt lat="44.58667" lon="1.19547">
        <ele>266</ele>
        <time>2023-09-29T14:54:47Z</time>
      </trkpt>
      <trkpt lat="44.58713" lon="1.19549">
        <ele>271</ele>
        <time>2023-09-29T14:55:49Z</time>
      </trkpt>
      <trkpt lat="44.58684" lon="1.19492">
        <ele>268</ele>
        <time>2023-09-29T14:56:55Z</time>
      </trkpt>
      <trkpt lat="44.58653" lon="1.19436">
        <ele>265</ele>
        <time>2023-09-29T14:58:03Z</time>
      </trkpt>
      <trkpt lat="44.58631" lon="1.19286">
        <ele>258</ele>
        <time>2023-09-29T15:00:28Z</time>
      </trkpt>
      <trkpt lat="44.58633" lon="1.19232">
        <ele>255</ele>
        <time>2023-09-29T15:01:20Z</time>
      </trkpt>
      <trkpt lat="44.58701" lon="1.19204">
        <ele>258</ele>
        <time>2023-09-29T15:02:54Z</time>
      </trkpt>
      <trkpt lat="44.5878" lon="1.19209">
        <ele>266</ele>
        <time>2023-09-29T15:04:40Z</time>
      </trkpt>
      <trkpt lat="44.58849" lon="1.19218">
        <ele>274</ele>
        <time>2023-09-29T15:06:12Z</time>
      </trkpt>
      <trkpt lat="44.58935" lon="1.19202">
        <ele>280</ele>
        <time>2023-09-29T15:08:08Z</time>
      </trkpt>
      <trkpt lat="44.59022" lon="1.19202">
        <ele>285</ele>
        <time>2023-09-29T15:10:04Z</time>
      </trkpt>
      <trkpt lat="44.59088" lon="1.19168">
        <ele>289</ele>
        <time>2023-09-29T15:11:38Z</time>
      </trkpt>
      <trkpt lat="44.59142" lon="1.19124">
        <ele>290</ele>
        <time>2023-09-29T15:13:01Z</time>
      </trkpt>
      <trkpt lat="44.5913" lon="1.19178">
        <ele>290</ele>
        <time>2023-09-29T15:13:55Z</time>
      </trkpt>
      <trkpt lat="44.59102" lon="1.19217">
        <ele>291</ele>
        <time>2023-09-29T15:14:48Z</time>
      </trkpt>
      <trkpt lat="44.59076" lon="1.1928">
        <ele>291</ele>
        <time>2023-09-29T15:15:57Z</time>
      </trkpt>
      <trkpt lat="44.59061" lon="1.19338">
        <ele>292</ele>
        <time>2023-09-29T15:16:55Z</time>
      </trkpt>
      <trkpt lat="44.59038" lon="1.19414">
        <ele>296</ele>
        <time>2023-09-29T15:18:14Z</time>
      </trkpt>
      <trkpt lat="44.59015" lon="1.19507">
        <ele>299</ele>
        <time>2023-09-29T15:19:47Z</time>
      </trkpt>
      <trkpt lat="44.5899" lon="1.19585">
        <ele>299</ele>
        <time>2023-09-29T15:21:09Z</time>
      </trkpt>
      <trkpt lat="44.58995" lon="1.19636">
        <ele>299</ele>
        <time>2023-09-29T15:21:58Z</time>
      </trkpt>
      <trkpt lat="44.5898" lon="1.19694">
        <ele>297</ele>
        <time>2023-09-29T15:22:56Z</time>
      </trkpt>
      <trkpt lat="44.58972" lon="1.1975">
        <ele>296</ele>
        <time>2023-09-29T15:23:51Z</time>
      </trkpt>
      <trkpt lat="44.58949" lon="1.19824">
        <ele>294</ele>
        <time>2023-09-29T15:25:07Z</time>
      </trkpt>
      <trkpt lat="44.58928" lon="1.1988">
        <ele>293</ele>
        <time>2023-09-29T15:26:07Z</time>
      </trkpt>
      <trkpt lat="44.58876" lon="1.19925">
        <ele>293</ele>
        <time>2023-09-29T15:27:29Z</time>
      </trkpt>
      <trkpt lat="44.58851" lon="1.19878">
        <ele>295</ele>
        <time>2023-09-29T15:28:25Z</time>
      </trkpt>
      <trkpt lat="44.58825" lon="1.1985">
        <ele>294</ele>
        <time>2023-09-29T15:29:08Z</time>
      </trkpt>
      <trkpt lat="44.58798" lon="1.19811">
        <ele>292</ele>
        <time>2023-09-29T15:30:00Z</time>
      </trkpt>
      <trkpt lat="44.58756" lon="1.19709">
        <ele>282</ele>
        <time>2023-09-29T15:31:52Z</time>
      </trkpt>
      <trkpt lat="44.58724" lon="1.19688">
        <ele>278</ele>
        <time>2023-09-29T15:32:39Z</time>
      </trkpt>
      <trkpt lat="44.58676" lon="1.19707">
        <ele>277</ele>
        <time>2023-09-29T15:33:46Z</time>
      </trkpt>
      <trkpt lat="44.58648" lon="1.19728">
        <ele>276</ele>
        <time>2023-09-29T15:34:28Z</time>
      </trkpt>
      <trkpt lat="44.58624" lon="1.19786">
        <ele>278</ele>
        <time>2023-09-29T15:35:32Z</time>
      </trkpt>
      <trkpt lat="44.58614" lon="1.1983">
        <ele>281</ele>
        <time>2023-09-29T15:36:16Z</time>
      </trkpt>
      <trkpt lat="44.58615" lon="1.19885">
        <ele>284</ele>
        <time>2023-09-29T15:37:08Z</time>
      </trkpt>
      <trkpt lat="44.58602" lon="1.19918">
        <ele>284</ele>
        <time>2023-09-29T15:37:44Z</time>
      </trkpt>
      <trkpt lat="44.58597" lon="1.19952">
        <ele>285</ele>
        <time>2023-09-29T15:38:17Z</time>
      </trkpt>
      <trkpt lat="44.58569" lon="1.20008">
        <ele>288</ele>
        <time>2023-09-29T15:39:22Z</time>
      </trkpt>
      <trkpt lat="44.58545" lon="1.20008">
        <ele>288</ele>
        <time>2023-09-29T15:39:54Z</time>
      </trkpt>
      <trkpt lat="44.58513" lon="1.19989">
        <ele>287</ele>
        <time>2023-09-29T15:40:40Z</time>
      </trkpt>
      <trkpt lat="44.58484" lon="1.20022">
        <ele>286</ele>
        <time>2023-09-29T15:41:30Z</time>
      </trkpt>
      <trkpt lat="44.58459" lon="1.20059">
        <ele>283</ele>
        <time>2023-09-29T15:42:19Z</time>
      </trkpt>
      <trkpt lat="44.58382" lon="1.20015">
        <ele>278</ele>
        <time>2023-09-29T15:44:10Z</time>
      </trkpt>
      <trkpt lat="44.58354" lon="1.19984">
        <ele>276</ele>
        <time>2023-09-29T15:44:57Z</time>
      </trkpt>
      <trkpt lat="44.58284" lon="1.20016">
        <ele>269</ele>
        <time>2023-09-29T15:46:35Z</time>
      </trkpt>
      <trkpt lat="44.58239" lon="1.20032">
        <ele>265</ele>
        <time>2023-09-29T15:47:37Z</time>
      </trkpt>
      <trkpt lat="44.5823" lon="1.20058">
        <ele>264</ele>
        <time>2023-09-29T15:48:05Z</time>
      </trkpt>
      <trkpt lat="44.58182" lon="1.20169">
        <ele>254</ele>
        <time>2023-09-29T15:50:08Z</time>
      </trkpt>
      <trkpt lat="44.58154" lon="1.20193">
        <ele>252</ele>
        <time>2023-09-29T15:50:52Z</time>
      </trkpt>
      <trkpt lat="44.58124" lon="1.20223">
        <ele>248</ele>
        <time>2023-09-29T15:51:41Z</time>
      </trkpt>
      <trkpt lat="44.58132" lon="1.20251">
        <ele>245</ele>
        <time>2023-09-29T15:52:10Z</time>
      </trkpt>
      <trkpt lat="44.58147" lon="1.20278">
        <ele>249</ele>
        <time>2023-09-29T15:52:42Z</time>
      </trkpt>
      <trkpt lat="44.58126" lon="1.20336">
        <ele>251</ele>
        <time>2023-09-29T15:53:44Z</time>
      </trkpt>
      <trkpt lat="44.58111" lon="1.20359">
        <ele>252</ele>
        <time>2023-09-29T15:54:14Z</time>
      </trkpt>
      <trkpt lat="44.58093" lon="1.2042">
        <ele>258</ele>
        <time>2023-09-29T15:55:17Z</time>
      </trkpt>
      <trkpt lat="44.58086" lon="1.20473">
        <ele>264</ele>
        <time>2023-09-29T15:56:08Z</time>
      </trkpt>
      <trkpt lat="44.5807" lon="1.20522">
        <ele>266</ele>
        <time>2023-09-29T15:56:59Z</time>
      </trkpt>
      <trkpt lat="44.58032" lon="1.20598">
        <ele>263</ele>
        <time>2023-09-29T15:58:27Z</time>
      </trkpt>
      <trkpt lat="44.58015" lon="1.20626">
        <ele>262</ele>
        <time>2023-09-29T15:59:02Z</time>
      </trkpt>
      <trkpt lat="44.57989" lon="1.20651">
        <ele>260</ele>
        <time>2023-09-29T15:59:44Z</time>
      </trkpt>
      <trkpt lat="44.57964" lon="1.20686">
        <ele>257</ele>
        <time>2023-09-29T16:00:31Z</time>
      </trkpt>
      <trkpt lat="44.57979" lon="1.20735">
        <ele>260</ele>
        <time>2023-09-29T16:01:22Z</time>
      </trkpt>
      <trkpt lat="44.57989" lon="1.20786">
        <ele>263</ele>
        <time>2023-09-29T16:02:12Z</time>
      </trkpt>
      <trkpt lat="44.57969" lon="1.20804">
        <ele>261</ele>
        <time>2023-09-29T16:02:44Z</time>
      </trkpt>
      <trkpt lat="44.57949" lon="1.20818">
        <ele>259</ele>
        <time>2023-09-29T16:03:14Z</time>
      </trkpt>
      <trkpt lat="44.57923" lon="1.20862">
        <ele>258</ele>
        <time>2023-09-29T16:04:08Z</time>
      </trkpt>
      <trkpt lat="44.57905" lon="1.20906">
        <ele>257</ele>
        <time>2023-09-29T16:04:57Z</time>
      </trkpt>
      <trkpt lat="44.57851" lon="1.20967">
        <ele>252</ele>
        <time>2023-09-29T16:06:29Z</time>
      </trkpt>
      <trkpt lat="44.57818" lon="1.21016">
        <ele>253</ele>
        <time>2023-09-29T16:07:33Z</time>
      </trkpt>
      <trkpt lat="44.57781" lon="1.21061">
        <ele>254</ele>
        <time>2023-09-29T16:08:38Z</time>
      </trkpt>
      <trkpt lat="44.57734" lon="1.21172">
        <ele>252</ele>
        <time>2023-09-29T16:10:41Z</time>
      </trkpt>
      <trkpt lat="44.57682" lon="1.21193">
        <ele>244</ele>
        <time>2023-09-29T16:11:53Z</time>
      </trkpt>
      <trkpt lat="44.57646" lon="1.21194">
        <ele>241</ele>
        <time>2023-09-29T16:12:41Z</time>
      </trkpt>
      <trkpt lat="44.57568" lon="1.21209">
        <ele>231</ele>
        <time>2023-09-29T16:14:27Z</time>
      </trkpt>
      <trkpt lat="44.57545" lon="1.21211">
        <ele>230</ele>
        <time>2023-09-29T16:14:57Z</time>
      </trkpt>
      <trkpt lat="44.57516" lon="1.2121">
        <ele>228</ele>
        <time>2023-09-29T16:15:36Z</time>
      </trkpt>
      <trkpt lat="44.57496" lon="1.21232">
        <ele>225</ele>
        <time>2023-09-29T16:16:10Z</time>
      </trkpt>
      <trkpt lat="44.57478" lon="1.21263">
        <ele>223</ele>
        <time>2023-09-29T16:16:48Z</time>
      </trkpt>
      <trkpt lat="44.5744" lon="1.21272">
        <ele>222</ele>
        <time>2023-09-29T16:17:39Z</time>
      </trkpt>
      <trkpt lat="44.5743" lon="1.212">
        <ele>224</ele>
        <time>2023-09-29T16:18:49Z</time>
      </trkpt>
      <trkpt lat="44.57452" lon="1.21094">
        <ele>224</ele>
        <time>2023-09-29T16:20:34Z</time>
      </trkpt>
      <trkpt lat="44.57471" lon="1.21037">
        <ele>223</ele>
        <time>2023-09-29T16:21:34Z</time>
      </trkpt>
      <trkpt lat="44.5747" lon="1.20985">
        <ele>219</ele>
        <time>2023-09-29T16:22:23Z</time>
      </trkpt>
      <trkpt lat="44.5753" lon="1.20918">
        <ele>221</ele>
        <time>2023-09-29T16:24:06Z</time>
      </trkpt>
      <trkpt lat="44.57573" lon="1.20904">
        <ele>223</ele>
        <time>2023-09-29T16:25:04Z</time>
      </trkpt>
      <trkpt lat="44.5761" lon="1.20887">
        <ele>225</ele>
        <time>2023-09-29T16:25:56Z</time>
      </trkpt>
      <trkpt lat="44.57644" lon="1.20836">
        <ele>222</ele>
        <time>2023-09-29T16:27:03Z</time>
      </trkpt>
      <trkpt lat="44.57689" lon="1.20812">
        <ele>224</ele>
        <time>2023-09-29T16:28:07Z</time>
      </trkpt>
      <trkpt lat="44.57698" lon="1.20779">
        <ele>222</ele>
        <time>2023-09-29T16:28:41Z</time>
      </trkpt>
      <trkpt lat="44.57702" lon="1.20722">
        <ele>218</ele>
        <time>2023-09-29T16:29:35Z</time>
      </trkpt>
      <trkpt lat="44.57728" lon="1.20693">
        <ele>220</ele>
        <time>2023-09-29T16:30:19Z</time>
      </trkpt>
      <trkpt lat="44.5776" lon="1.20661">
        <ele>223</ele>
        <time>2023-09-29T16:31:12Z</time>
      </trkpt>
      <trkpt lat="44.57781" lon="1.20633">
        <ele>224</ele>
        <time>2023-09-29T16:31:51Z</time>
      </trkpt>
      <trkpt lat="44.57782" lon="1.20567">
        <ele>221</ele>
        <time>2023-09-29T16:32:53Z</time>
      </trkpt>
      <trkpt lat="44.57806" lon="1.20516">
        <ele>221</ele>
        <time>2023-09-29T16:33:51Z</time>
      </trkpt>
      <trkpt lat="44.5783" lon="1.20476">
        <ele>221</ele>
        <time>2023-09-29T16:34:41Z</time>
      </trkpt>
      <trkpt lat="44.57832" lon="1.20414">
        <ele>215</ele>
        <time>2023-09-29T16:35:40Z</time>
      </trkpt>
      <trkpt lat="44.57785" lon="1.20367">
        <ele>219</ele>
        <time>2023-09-29T16:36:57Z</time>
      </trkpt>
      <trkpt lat="44.57839" lon="1.20331">
        <ele>224</ele>
        <time>2023-09-29T16:38:17Z</time>
      </trkpt>
      <trkpt lat="44.57886" lon="1.20315">
        <ele>229</ele>
        <time>2023-09-29T16:39:21Z</time>
      </trkpt>
      <trkpt lat="44.57927" lon="1.20297">
        <ele>233</ele>
        <time>2023-09-29T16:40:19Z</time>
      </trkpt>
      <trkpt lat="44.57874" lon="1.20283">
        <ele>235</ele>
        <time>2023-09-29T16:41:31Z</time>
      </trkpt>
      <trkpt lat="44.57823" lon="1.20287">
        <ele>234</ele>
        <time>2023-09-29T16:42:39Z</time>
      </trkpt>
      <trkpt lat="44.5779" lon="1.20283">
        <ele>235</ele>
        <time>2023-09-29T16:43:23Z</time>
      </trkpt>
      <trkpt lat="44.5775" lon="1.20269">
        <ele>237</ele>
        <time>2023-09-29T16:44:18Z</time>
      </trkpt>
      <trkpt lat="44.57733" lon="1.20243">
        <ele>241</ele>
        <time>2023-09-29T16:44:52Z</time>
      </trkpt>
      <trkpt lat="44.57702" lon="1.20205">
        <ele>242</ele>
        <time>2023-09-29T16:45:47Z</time>
      </trkpt>
      <trkpt lat="44.57675" lon="1.20203">
        <ele>238</ele>
        <time>2023-09-29T16:46:23Z</time>
      </trkpt>
      <trkpt lat="44.57653" lon="1.20207">
        <ele>232</ele>
        <time>2023-09-29T16:46:52Z</time>
      </trkpt>
      <trkpt lat="44.57644" lon="1.20177">
        <ele>232</ele>
        <time>2023-09-29T16:47:23Z</time>
      </trkpt>
      <trkpt lat="44.57627" lon="1.20132">
        <ele>225</ele>
        <time>2023-09-29T16:48:12Z</time>
      </trkpt>
      <trkpt lat="44.57648" lon="1.20025">
        <ele>216</ele>
        <time>2023-09-29T16:49:57Z</time>
      </trkpt>
      <trkpt lat="44.57654" lon="1.19971">
        <ele>211</ele>
        <time>2023-09-29T16:50:49Z</time>
      </trkpt>
      <trkpt lat="44.57643" lon="1.19938">
        <ele>210</ele>
        <time>2023-09-29T16:51:24Z</time>
      </trkpt>
      <trkpt lat="44.57697" lon="1.19904">
        <ele>213</ele>
        <time>2023-09-29T16:52:43Z</time>
      </trkpt>
      <trkpt lat="44.57732" lon="1.19864">
        <ele>216</ele>
        <time>2023-09-29T16:53:43Z</time>
      </trkpt>
      <trkpt lat="44.57731" lon="1.19806">
        <ele>218</ele>
        <time>2023-09-29T16:54:38Z</time>
      </trkpt>
      <trkpt lat="44.57725" lon="1.19781">
        <ele>219</ele>
        <time>2023-09-29T16:55:03Z</time>
      </trkpt>
      <trkpt lat="44.57757" lon="1.19755">
        <ele>218</ele>
        <time>2023-09-29T16:55:52Z</time>
      </trkpt>
      <trkpt lat="44.57742" lon="1.19681">
        <ele>220</ele>
        <time>2023-09-29T16:57:06Z</time>
      </trkpt>
      <trkpt lat="44.57731" lon="1.19638">
        <ele>223</ele>
        <time>2023-09-29T16:57:49Z</time>
      </trkpt>
    </trkseg>
  </trk>
</gpx>